createdAt,value
2023-06-30T00:00:18.102Z,91.64
2023-06-30T00:01:18.188Z,91.44
2023-06-30T00:02:18.103Z,91.85
2023-06-30T00:03:18.170Z,91.34
2023-06-30T00:04:18.072Z,91.94
2023-06-30T00:05:18.010Z,91.89
2023-06-30T00:06:18.041Z,91.74
2023-06-30T00:07:18.061Z,91.99
2023-06-30T00:08:17.998Z,91.85
2023-06-30T00:09:18.040Z,91.94
2023-06-30T00:10:18.019Z,92.25
2023-06-30T00:11:17.980Z,91.94
2023-06-30T00:12:18.040Z,91.94
2023-06-30T00:13:17.976Z,92.05
2023-06-30T00:14:17.946Z,92.45
2023-06-30T00:15:17.948Z,91.94
2023-06-30T00:16:18.081Z,91.64
2023-06-30T00:17:17.926Z,91.74
2023-06-30T00:18:18.207Z,91.94
2023-06-30T00:19:18.170Z,91.74
2023-06-30T00:20:17.922Z,91.34
2023-06-30T00:21:17.909Z,91.74
2023-06-30T00:22:17.922Z,92.05
2023-06-30T00:23:17.880Z,92.14
2023-06-30T00:24:17.938Z,92.14
2023-06-30T00:25:17.879Z,91.85
2023-06-30T00:26:17.896Z,91.94
2023-06-30T00:27:17.840Z,92.14
2023-06-30T00:28:17.846Z,91.44
2023-06-30T00:29:17.902Z,91.04
2023-06-30T00:30:17.859Z,91.14
2023-06-30T00:31:18.033Z,91.34
2023-06-30T00:32:17.826Z,91.24
2023-06-30T00:33:18.041Z,91.54
2023-06-30T00:34:17.802Z,91.54
2023-06-30T00:35:17.920Z,91.64
2023-06-30T00:36:17.840Z,91.89
2023-06-30T00:37:17.883Z,91.54
2023-06-30T00:38:17.818Z,91.85
2023-06-30T00:39:17.766Z,91.85
2023-06-30T00:40:17.757Z,91.54
2023-06-30T00:41:17.760Z,91.64
2023-06-30T00:42:18.082Z,91.85
2023-06-30T00:43:17.765Z,92.14
2023-06-30T00:44:17.721Z,91.14
2023-06-30T00:45:17.734Z,91.24
2023-06-30T00:46:17.862Z,91.30
2023-06-30T00:47:17.724Z,91.70
2023-06-30T00:48:17.740Z,91.19
2023-06-30T00:49:17.719Z,91.50
2023-06-30T00:50:17.739Z,90.79
2023-06-30T00:51:17.834Z,90.99
2023-06-30T00:52:17.662Z,91.19
2023-06-30T00:53:17.697Z,91.39
2023-06-30T00:54:17.728Z,91.70
2023-06-30T00:55:17.638Z,91.30
2023-06-30T00:56:17.638Z,92.20
2023-06-30T00:57:17.629Z,93.31
2023-06-30T00:58:17.641Z,94.01
2023-06-30T00:59:17.669Z,94.32
2023-06-30T01:00:17.640Z,94.42
2023-06-30T01:01:17.649Z,94.36
2023-06-30T01:02:17.630Z,94.36
2023-06-30T01:03:17.805Z,95.67
2023-06-30T01:04:17.652Z,95.72
2023-06-30T01:05:17.659Z,96.12
2023-06-30T01:06:17.606Z,96.83
2023-06-30T01:07:17.614Z,97.13
2023-06-30T01:08:17.623Z,97.03
2023-06-30T01:09:17.542Z,97.43
2023-06-30T01:10:17.563Z,96.72
2023-06-30T01:11:17.535Z,97.73
2023-06-30T01:12:17.961Z,97.83
2023-06-30T01:13:17.521Z,98.03
2023-06-30T01:14:17.503Z,99.08
2023-06-30T01:15:17.522Z,99.04
2023-06-30T01:16:17.525Z,98.84
2023-06-30T01:17:17.489Z,99.34
2023-06-30T01:18:17.543Z,98.84
2023-06-30T01:19:18.595Z,99.08
2023-06-30T01:20:17.462Z,99.99
2023-06-30T01:21:17.479Z,99.99
2023-06-30T01:22:17.417Z,99.79
2023-06-30T01:23:17.420Z,99.65
2023-06-30T01:24:17.466Z,99.65
2023-06-30T01:25:17.436Z,99.44
2023-06-30T01:26:17.444Z,98.13
2023-06-30T01:27:17.404Z,98.99
2023-06-30T01:28:17.452Z,98.94
2023-06-30T01:29:17.454Z,98.94
2023-06-30T01:30:17.488Z,98.84
2023-06-30T01:31:17.416Z,99.54
2023-06-30T01:32:17.360Z,98.64
2023-06-30T01:33:17.361Z,97.88
2023-06-30T01:34:17.380Z,98.74
2023-06-30T01:35:17.373Z,98.84
2023-06-30T01:36:17.364Z,97.58
2023-06-30T01:37:17.345Z,97.83
2023-06-30T01:38:17.365Z,98.24
2023-06-30T01:39:17.352Z,98.08
2023-06-30T01:40:17.317Z,98.64
2023-06-30T01:41:17.319Z,98.79
2023-06-30T01:42:17.372Z,98.79
2023-06-30T01:43:17.289Z,99.04
2023-06-30T01:44:17.280Z,98.84
2023-06-30T01:45:17.286Z,98.03
2023-06-30T01:46:17.326Z,98.64
2023-06-30T01:47:17.267Z,98.94
2023-06-30T01:48:17.313Z,98.94
2023-06-30T01:49:17.269Z,96.72
2023-06-30T01:50:17.285Z,97.38
2023-06-30T01:51:17.231Z,97.07
2023-06-30T01:52:17.270Z,97.38
2023-06-30T01:53:17.228Z,97.23
2023-06-30T01:54:17.255Z,98.64
2023-06-30T01:55:17.235Z,98.74
2023-06-30T01:56:17.246Z,98.13
2023-06-30T01:57:17.227Z,98.13
2023-06-30T01:58:17.190Z,98.13
2023-06-30T01:59:17.215Z,98.94
2023-06-30T02:00:17.213Z,98.84
2023-06-30T02:01:17.217Z,99.04
2023-06-30T02:02:17.164Z,98.94
2023-06-30T02:03:17.241Z,98.24
2023-06-30T02:04:17.186Z,98.33
2023-06-30T02:05:17.181Z,98.03
2023-06-30T02:06:17.184Z,98.54
2023-06-30T02:07:17.170Z,98.74
2023-06-30T02:08:17.112Z,99.54
2023-06-30T02:09:17.132Z,99.34
2023-06-30T02:10:17.127Z,98.74
2023-06-30T02:11:17.102Z,98.84
2023-06-30T02:12:17.150Z,99.49
2023-06-30T02:13:17.098Z,99.04
2023-06-30T02:14:17.086Z,99.29
2023-06-30T02:15:17.072Z,99.89
2023-06-30T02:16:17.079Z,99.69
2023-06-30T02:17:17.099Z,99.69
2023-06-30T02:18:17.630Z,99.99
2023-06-30T02:19:17.039Z,99.99
2023-06-30T02:20:17.049Z,99.99
2023-06-30T02:21:17.030Z,99.99
2023-06-30T02:22:17.022Z,99.95
2023-06-30T02:23:17.025Z,99.04
2023-06-30T02:24:17.067Z,99.08
2023-06-30T02:25:16.997Z,99.19
2023-06-30T02:26:17.020Z,99.69
2023-06-30T02:27:16.981Z,99.39
2023-06-30T02:28:16.974Z,99.19
2023-06-30T02:29:17.008Z,99.08
2023-06-30T02:30:17.023Z,99.79
2023-06-30T02:31:17.027Z,99.79
2023-06-30T02:32:16.973Z,99.79
2023-06-30T02:33:16.936Z,99.29
2023-06-30T02:34:16.963Z,99.19
2023-06-30T02:35:17.002Z,99.99
2023-06-30T02:36:16.984Z,99.79
2023-06-30T02:37:16.908Z,99.69
2023-06-30T02:38:16.891Z,99.69
2023-06-30T02:39:16.931Z,99.79
2023-06-30T02:40:16.897Z,99.69
2023-06-30T02:41:16.868Z,99.79
2023-06-30T02:42:16.908Z,99.99
2023-06-30T02:43:16.861Z,99.95
2023-06-30T02:44:16.885Z,99.39
2023-06-30T02:45:16.866Z,99.49
2023-06-30T02:46:16.940Z,99.79
2023-06-30T02:47:16.867Z,99.99
2023-06-30T02:48:16.861Z,99.99
2023-06-30T02:49:16.817Z,99.99
2023-06-30T02:50:16.805Z,99.99
2023-06-30T02:51:16.802Z,99.85
2023-06-30T02:52:16.800Z,99.99
2023-06-30T02:53:16.795Z,99.99
2023-06-30T02:54:16.795Z,99.89
2023-06-30T02:55:16.765Z,99.89
2023-06-30T02:56:16.792Z,99.34
2023-06-30T02:57:16.783Z,99.79
2023-06-30T02:58:16.782Z,99.99
2023-06-30T02:59:16.768Z,99.89
2023-06-30T03:00:16.894Z,99.99
2023-06-30T03:01:16.813Z,99.99
2023-06-30T03:02:16.908Z,99.99
2023-06-30T03:03:16.756Z,99.99
2023-06-30T03:04:16.701Z,99.99
2023-06-30T03:05:16.702Z,99.99
2023-06-30T03:06:16.768Z,99.99
2023-06-30T03:07:16.736Z,99.95
2023-06-30T03:08:16.696Z,99.99
2023-06-30T03:09:16.698Z,99.65
2023-06-30T03:10:16.687Z,99.99
2023-06-30T03:11:16.641Z,99.99
2023-06-30T03:12:16.704Z,99.59
2023-06-30T03:13:16.681Z,99.99
2023-06-30T03:14:16.689Z,99.99
2023-06-30T03:15:16.632Z,99.99
2023-06-30T03:16:16.665Z,99.89
2023-06-30T03:17:16.651Z,99.99
2023-06-30T03:18:16.693Z,99.99
2023-06-30T03:19:16.649Z,99.79
2023-06-30T03:20:16.614Z,99.79
2023-06-30T03:21:16.610Z,99.99
2023-06-30T03:22:16.601Z,99.99
2023-06-30T03:23:16.572Z,99.99
2023-06-30T03:24:16.645Z,99.99
2023-06-30T03:25:16.564Z,99.29
2023-06-30T03:26:16.608Z,99.08
2023-06-30T03:27:16.533Z,98.79
2023-06-30T03:28:16.536Z,98.83
2023-06-30T03:29:16.553Z,99.54
2023-06-30T03:30:16.550Z,99.54
2023-06-30T03:31:16.541Z,99.54
2023-06-30T03:32:16.494Z,99.84
2023-06-30T03:33:16.500Z,99.69
2023-06-30T03:34:16.485Z,99.99
2023-06-30T03:35:16.566Z,99.99
2023-06-30T03:36:16.532Z,99.99
2023-06-30T03:37:16.478Z,99.89
2023-06-30T03:38:16.443Z,99.49
2023-06-30T03:39:18.143Z,98.88
2023-06-30T03:40:16.458Z,99.29
2023-06-30T03:41:16.565Z,99.24
2023-06-30T03:42:16.458Z,99.14
2023-06-30T03:43:16.419Z,99.34
2023-06-30T03:44:16.617Z,99.44
2023-06-30T03:45:16.396Z,98.84
2023-06-30T03:46:16.492Z,99.44
2023-06-30T03:47:16.443Z,99.44
2023-06-30T03:48:16.399Z,99.24
2023-06-30T03:49:16.570Z,99.74
2023-06-30T03:50:16.353Z,98.74
2023-06-30T03:51:16.412Z,99.34
2023-06-30T03:52:16.381Z,99.54
2023-06-30T03:53:16.344Z,99.44
2023-06-30T03:54:16.505Z,99.34
2023-06-30T03:55:16.361Z,99.24
2023-06-30T03:56:16.354Z,99.34
2023-06-30T03:57:16.304Z,99.65
2023-06-30T03:58:16.338Z,99.99
2023-06-30T03:59:16.313Z,99.74
2023-06-30T04:00:16.347Z,99.24
2023-06-30T04:01:16.326Z,99.85
2023-06-30T04:02:16.301Z,99.65
2023-06-30T04:03:16.443Z,99.65
2023-06-30T04:04:16.412Z,99.99
2023-06-30T04:05:16.254Z,99.99
2023-06-30T04:06:16.322Z,99.85
2023-06-30T04:07:16.382Z,99.95
2023-06-30T04:08:16.455Z,99.99
2023-06-30T04:09:16.279Z,99.99
2023-06-30T04:10:16.212Z,99.95
2023-06-30T04:11:16.244Z,99.65
2023-06-30T04:12:16.250Z,99.74
2023-06-30T04:13:16.233Z,99.85
2023-06-30T04:14:16.209Z,99.90
2023-06-30T04:15:16.185Z,99.34
2023-06-30T04:16:16.206Z,99.24
2023-06-30T04:17:16.174Z,99.74
2023-06-30T04:18:16.378Z,99.80
2023-06-30T04:19:16.225Z,99.90
2023-06-30T04:20:16.155Z,99.40
2023-06-30T04:21:16.145Z,98.74
2023-06-30T04:22:16.122Z,99.54
2023-06-30T04:23:16.232Z,98.74
2023-06-30T04:24:16.163Z,99.34
2023-06-30T04:25:16.168Z,99.34
2023-06-30T04:26:16.094Z,98.54
2023-06-30T04:27:16.091Z,98.94
2023-06-30T04:28:16.107Z,99.04
2023-06-30T04:29:16.930Z,99.04
2023-06-30T04:30:16.160Z,98.84
2023-06-30T04:31:16.114Z,98.69
2023-06-30T04:32:16.053Z,98.99
2023-06-30T04:33:16.078Z,97.78
2023-06-30T04:34:16.068Z,97.69
2023-06-30T04:35:16.119Z,97.78
2023-06-30T04:36:16.108Z,99.10
2023-06-30T04:37:16.032Z,98.19
2023-06-30T04:38:16.302Z,97.28
2023-06-30T04:39:15.994Z,97.49
2023-06-30T04:40:16.016Z,97.99
2023-06-30T04:41:16.035Z,98.29
2023-06-30T04:42:16.055Z,97.99
2023-06-30T04:43:15.999Z,98.59
2023-06-30T04:44:15.982Z,97.89
2023-06-30T04:45:17.251Z,97.78
2023-06-30T04:46:15.970Z,98.69
2023-06-30T04:47:16.008Z,97.49
2023-06-30T04:48:16.000Z,98.13
2023-06-30T04:49:15.932Z,98.13
2023-06-30T04:50:15.951Z,97.93
2023-06-30T04:51:15.956Z,97.93
2023-06-30T04:52:15.911Z,98.13
2023-06-30T04:53:15.895Z,97.53
2023-06-30T04:54:16.179Z,98.64
2023-06-30T04:55:15.922Z,98.09
2023-06-30T04:56:17.308Z,98.29
2023-06-30T04:57:16.022Z,97.89
2023-06-30T04:58:16.162Z,98.79
2023-06-30T04:59:16.125Z,98.09
2023-06-30T05:00:16.218Z,98.29
2023-06-30T05:01:15.906Z,98.59
2023-06-30T05:02:15.892Z,98.49
2023-06-30T05:03:15.883Z,98.94
2023-06-30T05:04:15.877Z,98.29
2023-06-30T05:05:15.839Z,98.99
2023-06-30T05:06:15.888Z,98.94
2023-06-30T05:07:15.970Z,98.84
2023-06-30T05:08:15.900Z,99.19
2023-06-30T05:09:15.798Z,99.19
2023-06-30T05:10:15.973Z,99.30
2023-06-30T05:11:15.807Z,99.19
2023-06-30T05:12:15.814Z,99.25
2023-06-30T05:13:15.814Z,98.90
2023-06-30T05:14:15.844Z,98.74
2023-06-30T05:15:15.757Z,98.44
2023-06-30T05:16:15.889Z,98.85
2023-06-30T05:17:16.022Z,97.99
2023-06-30T05:18:15.828Z,98.74
2023-06-30T05:19:15.708Z,98.65
2023-06-30T05:20:15.756Z,97.99
2023-06-30T05:21:15.717Z,98.54
2023-06-30T05:22:15.797Z,98.85
2023-06-30T05:23:15.715Z,98.54
2023-06-30T05:24:15.757Z,98.65
2023-06-30T05:25:15.697Z,98.65
2023-06-30T05:26:15.724Z,98.94
2023-06-30T05:27:15.730Z,97.58
2023-06-30T05:28:15.694Z,98.09
2023-06-30T05:29:15.702Z,99.14
2023-06-30T05:30:15.822Z,99.95
2023-06-30T05:31:15.760Z,99.34
2023-06-30T05:32:15.640Z,98.84
2023-06-30T05:33:15.696Z,99.44
2023-06-30T05:34:15.616Z,99.50
2023-06-30T05:35:15.829Z,99.60
2023-06-30T05:36:15.768Z,99.50
2023-06-30T05:37:15.582Z,99.19
2023-06-30T05:38:15.634Z,99.19
2023-06-30T05:39:15.615Z,98.69
2023-06-30T05:40:15.542Z,99.30
2023-06-30T05:41:15.550Z,98.84
2023-06-30T05:42:15.573Z,98.69
2023-06-30T05:43:15.531Z,99.14
2023-06-30T05:44:15.561Z,99.70
2023-06-30T05:45:15.533Z,99.10
2023-06-30T05:46:15.559Z,99.34
2023-06-30T05:47:15.492Z,98.94
2023-06-30T05:48:15.535Z,99.54
2023-06-30T05:49:15.498Z,98.69
2023-06-30T05:50:15.511Z,99.60
2023-06-30T05:51:15.485Z,99.30
2023-06-30T05:52:15.483Z,99.44
2023-06-30T05:53:15.451Z,99.14
2023-06-30T05:54:15.499Z,99.74
2023-06-30T05:55:15.437Z,99.74
2023-06-30T05:56:15.428Z,99.54
2023-06-30T05:57:15.472Z,99.74
2023-06-30T05:58:15.448Z,99.99
2023-06-30T05:59:15.435Z,99.65
2023-06-30T06:00:15.446Z,99.99
2023-06-30T06:01:15.411Z,99.85
2023-06-30T06:02:15.429Z,99.24
2023-06-30T06:03:15.554Z,99.24
2023-06-30T06:04:15.468Z,99.44
2023-06-30T06:05:15.498Z,99.54
2023-06-30T06:06:15.400Z,99.30
2023-06-30T06:07:15.401Z,98.69
2023-06-30T06:08:15.358Z,99.40
2023-06-30T06:09:15.352Z,98.99
2023-06-30T06:10:16.333Z,98.79
2023-06-30T06:11:15.322Z,98.94
2023-06-30T06:12:15.381Z,98.74
2023-06-30T06:13:15.369Z,98.69
2023-06-30T06:14:15.328Z,97.99
2023-06-30T06:15:15.288Z,97.49
2023-06-30T06:16:15.315Z,97.78
2023-06-30T06:17:15.312Z,98.19
2023-06-30T06:18:15.330Z,98.69
2023-06-30T06:19:15.292Z,97.69
2023-06-30T06:20:15.292Z,98.39
2023-06-30T06:21:15.247Z,99.10
2023-06-30T06:22:15.242Z,98.09
2023-06-30T06:23:15.236Z,99.10
2023-06-30T06:24:15.271Z,98.99
2023-06-30T06:25:15.280Z,98.90
2023-06-30T06:26:15.220Z,99.15
2023-06-30T06:27:15.224Z,99.05
2023-06-30T06:28:15.224Z,99.50
2023-06-30T06:29:15.199Z,99.05
2023-06-30T06:30:15.242Z,99.15
2023-06-30T06:31:15.235Z,99.35
2023-06-30T06:32:15.167Z,99.25
2023-06-30T06:33:15.187Z,98.79
2023-06-30T06:34:15.164Z,98.69
2023-06-30T06:35:15.201Z,99.10
2023-06-30T06:36:15.173Z,99.30
2023-06-30T06:37:15.140Z,99.30
2023-06-30T06:38:15.155Z,99.04
2023-06-30T06:39:15.127Z,99.44
2023-06-30T06:40:15.137Z,98.84
2023-06-30T06:41:15.111Z,97.83
2023-06-30T06:42:15.128Z,98.58
2023-06-30T06:43:15.075Z,97.82
2023-06-30T06:44:15.096Z,97.62
2023-06-30T06:45:15.072Z,98.63
2023-06-30T06:46:15.093Z,98.73
2023-06-30T06:47:15.127Z,97.92
2023-06-30T06:48:15.098Z,97.72
2023-06-30T06:49:15.072Z,97.62
2023-06-30T06:50:15.034Z,99.18
2023-06-30T06:51:15.070Z,99.18
2023-06-30T06:52:15.036Z,99.08
2023-06-30T06:53:15.010Z,99.28
2023-06-30T06:54:15.072Z,98.47
2023-06-30T06:55:15.010Z,99.38
2023-06-30T06:56:15.010Z,98.88
2023-06-30T06:57:14.990Z,99.58
2023-06-30T06:58:14.984Z,98.98
2023-06-30T06:59:14.982Z,99.08
2023-06-30T07:00:15.033Z,98.22
2023-06-30T07:01:15.000Z,98.22
2023-06-30T07:02:14.964Z,98.07
2023-06-30T07:03:15.013Z,99.28
2023-06-30T07:04:15.062Z,98.88
2023-06-30T07:05:14.956Z,99.48
2023-06-30T07:06:14.966Z,98.47
2023-06-30T07:07:15.033Z,98.68
2023-06-30T07:08:14.928Z,99.48
2023-06-30T07:09:14.968Z,99.18
2023-06-30T07:10:14.902Z,98.27
2023-06-30T07:11:14.902Z,97.56
2023-06-30T07:12:14.908Z,98.07
2023-06-30T07:13:14.871Z,98.17
2023-06-30T07:14:14.902Z,97.06
2023-06-30T07:15:14.847Z,97.27
2023-06-30T07:16:14.886Z,97.81
2023-06-30T07:17:14.825Z,98.93
2023-06-30T07:18:14.950Z,98.93
2023-06-30T07:19:14.835Z,98.82
2023-06-30T07:20:14.845Z,98.22
2023-06-30T07:21:14.829Z,99.48
2023-06-30T07:22:14.798Z,99.08
2023-06-30T07:23:14.808Z,99.54
2023-06-30T07:24:14.829Z,97.87
2023-06-30T07:25:14.816Z,98.88
2023-06-30T07:26:14.778Z,98.07
2023-06-30T07:27:14.838Z,98.88
2023-06-30T07:28:14.753Z,97.77
2023-06-30T07:29:14.771Z,98.42
2023-06-30T07:30:14.815Z,99.13
2023-06-30T07:31:14.796Z,98.32
2023-06-30T07:32:17.390Z,98.93
2023-06-30T07:33:14.750Z,99.22
2023-06-30T07:34:14.732Z,99.13
2023-06-30T07:35:14.720Z,99.58
2023-06-30T07:36:14.786Z,99.99
2023-06-30T07:37:14.721Z,99.08
2023-06-30T07:38:14.751Z,99.18
2023-06-30T07:39:14.675Z,98.37
2023-06-30T07:40:16.918Z,98.88
2023-06-30T07:41:14.667Z,98.27
2023-06-30T07:42:14.721Z,98.88
2023-06-30T07:43:14.665Z,99.08
2023-06-30T07:44:14.664Z,98.47
2023-06-30T07:45:14.655Z,98.37
2023-06-30T07:46:14.683Z,98.93
2023-06-30T07:47:14.653Z,99.02
2023-06-30T07:48:14.795Z,98.88
2023-06-30T07:49:14.670Z,98.93
2023-06-30T07:50:14.621Z,98.11
2023-06-30T07:51:14.599Z,97.61
2023-06-30T07:52:14.619Z,97.91
2023-06-30T07:53:14.582Z,99.27
2023-06-30T07:54:14.629Z,98.82
2023-06-30T07:55:14.616Z,98.87
2023-06-30T07:56:14.608Z,99.13
2023-06-30T07:57:14.573Z,99.43
2023-06-30T07:58:14.555Z,97.61
2023-06-30T07:59:14.578Z,97.45
2023-06-30T08:00:14.565Z,97.76
2023-06-30T08:01:14.542Z,98.16
2023-06-30T08:02:14.576Z,98.87
2023-06-30T08:03:14.697Z,98.42
2023-06-30T08:04:14.670Z,97.66
2023-06-30T08:05:14.646Z,97.45
2023-06-30T08:06:14.694Z,97.25
2023-06-30T08:07:14.564Z,97.36
2023-06-30T08:08:14.483Z,97.36
2023-06-30T08:09:14.521Z,98.47
2023-06-30T08:10:14.468Z,99.22
2023-06-30T08:11:14.489Z,99.22
2023-06-30T08:12:14.527Z,97.61
2023-06-30T08:13:14.480Z,97.71
2023-06-30T08:14:14.456Z,97.61
2023-06-30T08:15:14.459Z,97.76
2023-06-30T08:16:14.454Z,97.45
2023-06-30T08:17:14.437Z,97.36
2023-06-30T08:18:15.555Z,97.45
2023-06-30T08:19:22.162Z,97.66
2023-06-30T08:20:15.525Z,97.96
2023-06-30T08:21:14.424Z,97.56
2023-06-30T08:22:14.396Z,97.80
2023-06-30T08:23:14.393Z,99.22
2023-06-30T08:24:14.457Z,99.27
2023-06-30T08:25:14.453Z,99.02
2023-06-30T08:26:14.363Z,99.42
2023-06-30T08:27:14.446Z,99.99
2023-06-30T08:28:14.356Z,97.60
2023-06-30T08:29:14.365Z,99.22
2023-06-30T08:30:14.416Z,97.50
2023-06-30T08:31:14.406Z,97.75
2023-06-30T08:32:14.336Z,99.37
2023-06-30T08:33:20.376Z,97.96
2023-06-30T08:34:15.331Z,97.45
2023-06-30T08:35:14.473Z,97.80
2023-06-30T08:36:14.355Z,98.56
2023-06-30T08:37:14.374Z,99.47
2023-06-30T08:38:14.311Z,99.62
2023-06-30T08:39:14.266Z,99.22
2023-06-30T08:40:14.409Z,98.51
2023-06-30T08:41:14.326Z,98.71
2023-06-30T08:42:14.314Z,99.62
2023-06-30T08:43:15.427Z,98.01
2023-06-30T08:44:14.235Z,98.11
2023-06-30T08:45:14.418Z,97.75
2023-06-30T08:46:14.285Z,98.96
2023-06-30T08:47:14.234Z,98.31
2023-06-30T08:48:14.254Z,99.22
2023-06-30T08:49:14.217Z,97.45
2023-06-30T08:50:14.202Z,97.75
2023-06-30T08:51:16.426Z,99.02
2023-06-30T08:52:14.203Z,99.02
2023-06-30T08:53:14.227Z,97.91
2023-06-30T08:54:14.225Z,99.07
2023-06-30T08:55:14.155Z,98.47
2023-06-30T08:56:14.199Z,97.96
2023-06-30T08:57:14.144Z,99.13
2023-06-30T08:58:24.848Z,96.65
2023-06-30T08:59:15.199Z,98.36
2023-06-30T09:00:14.141Z,98.07
2023-06-30T09:01:14.189Z,97.25
2023-06-30T09:02:14.160Z,98.16
2023-06-30T09:03:14.197Z,98.07
2023-06-30T09:04:14.166Z,97.66
2023-06-30T09:05:14.249Z,97.71
2023-06-30T09:06:14.099Z,98.82
2023-06-30T09:07:14.173Z,97.61
2023-06-30T09:08:14.089Z,97.06
2023-06-30T09:09:14.108Z,97.97
2023-06-30T09:10:14.183Z,96.76
2023-06-30T09:11:14.105Z,95.95
2023-06-30T09:12:14.076Z,95.79
2023-06-30T09:13:14.017Z,96.30
2023-06-30T09:14:14.037Z,95.70
2023-06-30T09:15:14.058Z,97.11
2023-06-30T09:16:18.936Z,96.76
2023-06-30T09:17:15.068Z,95.79
2023-06-30T09:18:14.023Z,94.04
2023-06-30T09:19:14.021Z,94.68
2023-06-30T09:20:14.012Z,94.08
2023-06-30T09:21:13.978Z,94.44
2023-06-30T09:22:53.686Z,94.19
2023-06-30T09:23:15.013Z,93.85
2023-06-30T09:24:13.982Z,93.74
2023-06-30T09:25:13.997Z,92.27
2023-06-30T09:26:13.992Z,92.78
2023-06-30T09:27:13.936Z,92.78
2023-06-30T09:28:13.945Z,93.14
2023-06-30T09:29:14.005Z,90.61
2023-06-30T09:30:13.899Z,91.91
2023-06-30T09:31:13.945Z,92.02
2023-06-30T09:32:13.979Z,93.29
2023-06-30T09:33:13.927Z,94.70
2023-06-30T09:34:13.905Z,90.97
2023-06-30T09:35:13.932Z,90.55
2023-06-30T09:36:13.877Z,92.06
2023-06-30T09:37:13.882Z,92.57
2023-06-30T09:38:13.908Z,92.46
2023-06-30T09:39:13.853Z,92.26
2023-06-30T09:40:13.855Z,93.57
2023-06-30T09:41:13.880Z,93.84
2023-06-30T09:42:13.831Z,94.54
2023-06-30T09:43:13.806Z,92.62
2023-06-30T09:44:13.813Z,93.33
2023-06-30T09:45:13.821Z,93.89
2023-06-30T09:46:13.845Z,93.49
2023-06-30T09:47:14.034Z,91.97
2023-06-30T09:48:13.789Z,92.58
2023-06-30T09:49:13.825Z,92.78
2023-06-30T09:50:13.861Z,91.47
2023-06-30T09:51:13.781Z,90.77
2023-06-30T09:52:13.756Z,91.83
2023-06-30T09:53:13.784Z,90.46
2023-06-30T09:54:13.737Z,91.21
2023-06-30T09:55:13.749Z,91.57
2023-06-30T09:56:13.739Z,92.07
2023-06-30T09:57:13.784Z,92.58
2023-06-30T09:58:13.723Z,90.82
2023-06-30T09:59:13.757Z,89.61
2023-06-30T10:00:25.498Z,89.26
2023-06-30T10:01:14.707Z,88.48
2023-06-30T10:02:13.675Z,89.09
2023-06-30T10:03:13.765Z,89.50
2023-06-30T10:04:15.112Z,89.65
2023-06-30T10:05:13.721Z,89.21
2023-06-30T10:06:13.671Z,88.20
2023-06-30T10:07:13.711Z,88.76
2023-06-30T10:08:13.646Z,88.06
2023-06-30T10:09:13.636Z,87.74
2023-06-30T10:10:13.638Z,88.04
2023-06-30T10:11:13.744Z,88.59
2023-06-30T10:12:13.621Z,89.50
2023-06-30T10:13:13.634Z,90.70
2023-06-30T10:14:13.594Z,91.41
2023-06-30T10:15:13.582Z,88.08
2023-06-30T10:16:13.649Z,88.08
2023-06-30T10:17:13.641Z,90.61
2023-06-30T10:18:13.704Z,90.77
2023-06-30T10:19:13.557Z,90.66
2023-06-30T10:20:13.569Z,88.70
2023-06-30T10:21:13.507Z,89.61
2023-06-30T10:22:13.534Z,87.90
2023-06-30T10:23:13.615Z,86.43
2023-06-30T10:24:13.543Z,88.39
2023-06-30T10:25:16.622Z,88.23
2023-06-30T10:26:13.654Z,91.15
2023-06-30T10:27:13.593Z,88.28
2023-06-30T10:28:13.497Z,87.03
2023-06-30T10:29:13.514Z,89.21
2023-06-30T10:30:13.513Z,88.00
2023-06-30T10:31:13.450Z,88.16
2023-06-30T10:32:13.506Z,86.65
2023-06-30T10:33:13.551Z,86.65
2023-06-30T10:34:13.450Z,86.38
2023-06-30T10:35:13.569Z,86.89
2023-06-30T10:36:13.449Z,86.43
2023-06-30T10:37:13.407Z,86.79
2023-06-30T10:38:13.430Z,86.99
2023-06-30T10:39:13.406Z,87.40
2023-06-30T10:40:13.404Z,86.29
2023-06-30T10:41:13.500Z,86.89
2023-06-30T10:42:13.443Z,85.54
2023-06-30T10:43:13.369Z,87.01
2023-06-30T10:44:13.399Z,83.83
2023-06-30T10:45:13.378Z,83.93
2023-06-30T10:46:13.376Z,84.59
2023-06-30T10:47:13.434Z,84.75
2023-06-30T10:48:13.386Z,82.64
2023-06-30T10:49:13.330Z,81.77
2023-06-30T10:50:13.332Z,82.18
2023-06-30T10:51:13.325Z,81.73
2023-06-30T10:52:13.323Z,82.84
2023-06-30T10:53:13.332Z,81.59
2023-06-30T10:54:13.309Z,81.90
2023-06-30T10:55:13.351Z,81.39
2023-06-30T10:56:13.288Z,81.13
2023-06-30T10:57:13.287Z,80.19
2023-06-30T10:58:13.271Z,79.64
2023-06-30T10:59:13.290Z,80.11
2023-06-30T11:00:13.339Z,79.21
2023-06-30T11:01:13.269Z,79.71
2023-06-30T11:02:13.243Z,79.71
2023-06-30T11:03:13.449Z,78.33
2023-06-30T11:04:13.397Z,77.09
2023-06-30T11:05:13.271Z,76.54
2023-06-30T11:06:13.236Z,77.02
2023-06-30T11:07:13.219Z,78.42
2023-06-30T11:08:13.189Z,77.85
2023-06-30T11:09:13.194Z,76.38
2023-06-30T11:10:13.311Z,75.08
2023-06-30T11:11:13.271Z,75.38
2023-06-30T11:12:13.251Z,75.27
2023-06-30T11:13:13.159Z,75.62
2023-06-30T11:14:13.176Z,76.42
2023-06-30T11:15:13.141Z,77.72
2023-06-30T11:16:13.166Z,77.42
2023-06-30T11:17:13.207Z,77.62
2023-06-30T11:18:13.298Z,78.06
2023-06-30T11:19:13.173Z,79.81
2023-06-30T11:20:13.259Z,79.08
2023-06-30T11:21:13.112Z,80.43
2023-06-30T11:22:13.073Z,79.92
2023-06-30T11:23:13.145Z,80.32
2023-06-30T11:24:14.190Z,80.58
2023-06-30T11:25:13.118Z,80.29
2023-06-30T11:26:13.268Z,79.52
2023-06-30T11:27:13.089Z,80.46
2023-06-30T11:28:13.157Z,80.57
2023-06-30T11:29:13.291Z,81.77
2023-06-30T11:30:13.117Z,81.87
2023-06-30T11:31:13.418Z,80.57
2023-06-30T11:32:13.042Z,81.57
2023-06-30T11:33:13.050Z,81.47
2023-06-30T11:34:13.037Z,81.13
2023-06-30T11:35:13.128Z,81.35
2023-06-30T11:36:13.069Z,79.64
2023-06-30T11:37:13.069Z,78.03
2023-06-30T11:38:13.053Z,78.03
2023-06-30T11:39:12.985Z,79.18
2023-06-30T11:40:13.032Z,80.15
2023-06-30T11:41:16.153Z,78.27
2023-06-30T11:42:14.029Z,78.44
2023-06-30T11:43:12.983Z,78.10
2023-06-30T11:44:13.009Z,77.90
2023-06-30T11:45:12.989Z,77.17
2023-06-30T11:46:12.922Z,77.33
2023-06-30T11:47:13.327Z,76.59
2023-06-30T11:48:12.901Z,76.09
2023-06-30T11:49:12.975Z,76.15
2023-06-30T11:50:12.906Z,75.35
2023-06-30T11:51:12.921Z,75.15
2023-06-30T11:52:12.881Z,76.49
2023-06-30T11:53:12.964Z,76.56
2023-06-30T11:54:12.852Z,74.61
2023-06-30T11:55:12.905Z,75.27
2023-06-30T11:56:12.873Z,73.37
2023-06-30T11:57:12.915Z,73.37
2023-06-30T11:58:12.940Z,73.47
2023-06-30T11:59:12.888Z,74.60
2023-06-30T12:00:12.843Z,72.06
2023-06-30T12:01:12.832Z,70.76
2023-06-30T12:02:12.938Z,70.96
2023-06-30T12:03:12.855Z,72.89
2023-06-30T12:04:12.830Z,71.16
2023-06-30T12:05:12.870Z,69.16
2023-06-30T12:06:12.767Z,70.12
2023-06-30T12:07:12.801Z,67.82
2023-06-30T12:08:12.764Z,70.09
2023-06-30T12:09:12.747Z,70.39
2023-06-30T12:10:12.784Z,70.69
2023-06-30T12:11:12.774Z,70.62
2023-06-30T12:12:12.754Z,68.29
2023-06-30T12:13:12.735Z,67.86
2023-06-30T12:14:12.715Z,66.93
2023-06-30T12:15:12.719Z,67.69
2023-06-30T12:16:12.797Z,67.96
2023-06-30T12:17:12.727Z,66.17
2023-06-30T12:18:12.671Z,67.26
2023-06-30T12:19:12.683Z,67.96
2023-06-30T12:20:12.709Z,67.23
2023-06-30T12:21:12.688Z,68.29
2023-06-30T12:22:12.668Z,66.86
2023-06-30T12:23:12.738Z,68.06
2023-06-30T12:24:12.630Z,65.80
2023-06-30T12:25:12.647Z,65.77
2023-06-30T12:26:12.646Z,64.94
2023-06-30T12:27:12.608Z,62.26
2023-06-30T12:28:12.609Z,63.44
2023-06-30T12:29:12.636Z,66.30
2023-06-30T12:30:12.596Z,66.46
2023-06-30T12:31:12.727Z,67.82
2023-06-30T12:32:12.665Z,68.73
2023-06-30T12:33:12.554Z,66.99
2023-06-30T12:34:12.579Z,70.43
2023-06-30T12:35:12.642Z,71.26
2023-06-30T12:36:12.546Z,71.56
2023-06-30T12:37:12.567Z,71.93
2023-06-30T12:38:12.553Z,73.07
2023-06-30T12:39:12.494Z,68.89
2023-06-30T12:40:12.521Z,68.86
2023-06-30T12:41:12.598Z,68.82
2023-06-30T12:42:12.510Z,67.59
2023-06-30T12:43:12.509Z,65.79
2023-06-30T12:44:12.596Z,65.86
2023-06-30T12:45:12.497Z,64.37
2023-06-30T12:46:12.520Z,63.34
2023-06-30T12:47:12.615Z,63.54
2023-06-30T12:48:12.502Z,63.54
2023-06-30T12:49:12.499Z,64.54
2023-06-30T12:50:12.452Z,65.27
2023-06-30T12:51:12.496Z,62.98
2023-06-30T12:52:12.438Z,63.48